Terminal Aerodrome Forecast
Issued by NWS Newport/Morehead City, NC

Home | Current Version | Previous Version | Text Only | Print | Product List | Glossary On
Versions: 1 2 3 4 5 6 7 8 9 10 11 12
000
FTUS42 KMHX 251737
TAFEWN
TAF
KEWN 251737Z 2518/2618 23014G25KT P6SM VCSH SCT045
      TEMPO 2520/2523 5SM TSRA BKN030CB
     FM260000 24011KT P6SM SCT050
     FM260700 24008KT P6SM SKC
     FM261500 27011G18KT P6SM SKC=

USA.gov is the U.S. government's official web portal to all federal, state and local government web resources and services.